Talin, Estonija

03:40 AM EEST on marec 30, 2017 (GMT +0300)
Ulemiste | | Change Station

Viš 128 ft 59.41 °N, 24.83 °E | Updated 20 minutes ago

Clear
Jasno
30 °F
Feels Like 21 °F
N
10
Veter Spremenljivo Veter od SSZ

Danes
High -- | Low -- °F
--% Chance of Precip.
Yesterday
High -- | Low -- °F
Precip. -- v
Zračni tlak 30.06 v
Vidljivost -9999.0 milje
Oblaki
Občutek zaradi vetra 21 °F
Rosišče 21 °F
Vlažnost 69%
Padavine 0.00 v
Snow Depth Not available.
6:52 AM 7:59 PM
Naraščajoči krajec, 5% visible
METAR EETN 300020Z 33009KT 300V360 CAVOK M01/M06 Q1018 R08/15//95
Zračni tlak 30.06 v
Vidljivost -9999.0 milje
Oblaki
Občutek zaradi vetra 21 °F
Rosišče 21 °F
Vlažnost 69%
Padavine 0.00 v
Snow Depth Not available.
6:52 AM 7:59 PM
Naraščajoči krajec, 5% visible
METAR EETN 300020Z 33009KT 300V360 CAVOK M01/M06 Q1018 R08/15//95

Get Severe Weather Alerts

Thanks for signing up!

Be on the lookout for a verification email in your inbox.

You'll start receiving the daily forecast at 8 AM.

×

10-Day Weather Forecast

×

Almanac

Astronomija

Mar. 30, 2017 Rise Set
Actual Time
Civil Twilight
Nautical Twilight
Astronomical Twilight
Moon
Length Of Visible Light
Dolžina dneva
Tomorrow will be .
, % of the Moon is Illuminated

Današnji ekstremi

Country Highs Country Lows

Community

WunderPhotos

Upload Photos

1,962,540 photos uploaded!

WunderBlog® & News

Nearby

Air Quality

  Air Quality AQ Index Pollutant
Not available.

Snow Depth

Station Depth Višina

Earthquake Activity

City Distance Mag. Time & Date
Minimum magnitude displayed is 2.5.

Earthquake Activity

City Distance Mag. Time & Date
Minimum magnitude displayed is 2.5.

Coastal Water Temperatures

Mesto Temperatura

Stations

Nearby Weather Stations

Station Location Temp Občutek zaradi vetra Rosišče Vlažnost Veter Precip. Viš Obnovljeno Type